Time;durP1;ratioP1;P1;durP2;ratioP2;P2;SDS_P1;SDS_P2;PMS_P1;PMS_P2;Temp;Humidity;BMP_temperature;BMP_pressure;BME280_temperature;BME280_humidity;BME280_pressure;Samples;Min_cycle;Max_cycle;Signal;HPM_P1;HPM_P2
2021/12/18 00:02:19;;;;;;;91.22;28.10;;;;;;;5.30;100.00;103255.16;5010927;28;20029;-84
2021/12/18 00:04:44;;;;;;;88.60;29.42;;;;;;;5.23;100.00;103235.94;5006828;28;20049;-88
2021/12/18 00:07:10;;;;;;;78.35;23.13;;;;;;;5.29;100.00;103250.75;4991169;28;20029;-86
2021/12/18 00:09:36;;;;;;;71.15;21.70;;;;;;;5.28;100.00;103249.88;4993992;28;20032;-84
2021/12/18 00:12:06;;;;;;;75.53;23.77;;;;;;;5.23;100.00;103248.41;4995345;28;20175;-83
2021/12/18 00:14:32;;;;;;;70.20;23.08;;;;;;;5.19;100.00;103236.19;4991999;28;20048;-86
2021/12/18 00:16:57;;;;;;;73.30;22.55;;;;;;;5.19;100.00;103247.72;5028070;28;20037;-84
2021/12/18 00:19:26;;;;;;;78.57;24.33;;;;;;;5.17;100.00;103244.25;5026488;28;20205;-84
2021/12/18 00:21:55;;;;;;;64.78;21.27;;;;;;;5.13;100.00;103248.00;4995279;28;20034;-84
2021/12/18 00:24:21;;;;;;;71.30;23.17;;;;;;;5.17;100.00;103256.75;5029678;28;20048;-85
2021/12/18 00:26:47;;;;;;;66.82;21.67;;;;;;;5.14;100.00;103246.25;4995813;28;20037;-84
2021/12/18 00:29:13;;;;;;;65.25;22.10;;;;;;;5.11;100.00;103244.59;5011241;28;20430;-87
2021/12/18 00:31:39;;;;;;;59.50;21.10;;;;;;;5.14;100.00;103251.56;4994853;28;20022;-84
2021/12/18 00:34:05;;;;;;;55.30;19.00;;;;;;;5.06;100.00;103231.47;5031797;28;20033;-82
2021/12/18 00:36:30;;;;;;;55.85;19.75;;;;;;;5.13;100.00;103250.69;5013803;28;20511;-83
2021/12/18 00:38:56;;;;;;;56.67;20.40;;;;;;;5.12;100.00;103242.78;5011838;28;20557;-85
2021/12/18 00:44:03;;;;;;;57.47;21.77;;;;;;;5.07;100.00;103243.88;5027880;28;20379;-84
2021/12/18 00:46:31;;;;;;;57.88;18.98;;;;;;;5.09;100.00;103249.13;5007547;28;20542;-85
2021/12/18 00:48:57;;;;;;;63.45;20.90;;;;;;;5.01;100.00;103227.34;4999102;28;20178;-86
2021/12/18 00:51:23;;;;;;;59.55;20.65;;;;;;;5.00;100.00;103222.91;4998322;28;20033;-84
2021/12/18 00:53:48;;;;;;;51.65;21.23;;;;;;;5.10;100.00;103242.00;5010657;28;20030;-85
2021/12/18 00:56:14;;;;;;;52.70;17.63;;;;;;;5.10;100.00;103242.00;4999291;28;20064;-83
2021/12/18 00:58:40;;;;;;;62.45;20.88;;;;;;;5.05;100.00;103236.88;5021422;28;20117;-83
2021/12/18 01:01:09;;;;;;;44.17;16.38;;;;;;;4.96;100.00;103224.03;5014669;28;20046;-83
2021/12/18 01:03:36;;;;;;;53.15;18.23;;;;;;;5.05;100.00;103231.56;5028297;28;20057;-86
2021/12/18 01:06:03;;;;;;;53.20;18.33;;;;;;;5.02;100.00;103231.72;5013278;28;20026;-84
2021/12/18 01:08:28;;;;;;;44.63;15.52;;;;;;;5.00;100.00;103231.81;4998116;28;20045;-85
2021/12/18 01:14:06;;;;;;;50.07;18.90;;;;;;;5.03;100.00;103236.13;5016366;28;20380;-85
2021/12/18 01:16:45;;;;;;;50.80;19.15;;;;;;;4.92;100.00;103220.69;5041234;28;20029;-83
2021/12/18 01:24:39;;;;;;;50.03;18.33;;;;;;;4.95;100.00;103228.50;5013030;28;20037;-83
2021/12/18 01:27:04;;;;;;;49.65;17.95;;;;;;;4.95;100.00;103224.97;5024850;28;20026;-83
2021/12/18 01:29:30;;;;;;;60.00;20.02;;;;;;;4.97;100.00;103223.09;5026768;28;20047;-84
2021/12/18 01:31:56;;;;;;;56.95;21.23;;;;;;;4.83;100.00;103195.34;5009238;28;20048;-83
2021/12/18 01:34:21;;;;;;;48.40;19.33;;;;;;;5.00;100.00;103225.59;4995384;28;20124;-83
2021/12/18 01:36:47;;;;;;;49.15;18.35;;;;;;;4.95;100.00;103215.19;4992590;28;20056;-83
2021/12/18 01:39:13;;;;;;;49.42;17.83;;;;;;;4.89;100.00;103191.47;5007508;28;20069;-85
2021/12/18 01:42:03;;;;;;;42.53;17.45;;;;;;;5.00;100.00;103209.59;5041253;28;20132;-85
2021/12/18 01:44:53;;;;;;;50.47;19.55;;;;;;;4.90;100.00;103190.56;5042404;28;20087;-83
2021/12/18 01:52:37;;;;;;;56.72;20.92;;;;;;;4.94;100.00;103185.91;5026565;28;20037;-85
2021/12/18 01:55:04;;;;;;;52.88;21.80;;;;;;;4.95;100.00;103187.63;5026617;28;20025;-84
2021/12/18 01:57:31;;;;;;;46.92;19.13;;;;;;;4.92;100.00;103190.47;5014104;28;20033;-81
2021/12/18 01:59:57;;;;;;;42.70;16.00;;;;;;;4.93;100.00;103193.06;5025163;28;20056;-83
2021/12/18 02:02:23;;;;;;;49.78;16.98;;;;;;;4.95;100.00;103196.53;5027108;28;20854;-86
2021/12/18 02:04:48;;;;;;;47.47;17.02;;;;;;;4.83;100.00;103175.81;4992351;28;20038;-84
2021/12/18 02:07:14;;;;;;;48.85;16.85;;;;;;;4.98;100.00;103203.50;5026955;28;20038;-85
2021/12/18 02:12:20;;;;;;;46.13;17.63;;;;;;;4.97;100.00;103189.28;5026259;28;20471;-83
2021/12/18 02:20:24;;;;;;;47.55;15.52;;;;;;;5.01;100.00;103190.00;5008669;28;20065;-84
2021/12/18 02:22:54;;;;;;;36.20;13.50;;;;;;;4.93;100.00;103174.41;5008971;28;20125;-84
2021/12/18 02:25:21;;;;;;;44.65;15.68;;;;;;;4.96;100.00;103178.72;5025150;28;20041;-84
2021/12/18 02:27:48;;;;;;;44.97;16.85;;;;;;;4.95;100.00;103180.53;5022197;28;20036;-86
2021/12/18 02:30:15;;;;;;;42.60;15.25;;;;;;;4.91;100.00;103173.59;5011755;28;20064;-84
2021/12/18 02:32:41;;;;;;;43.92;16.75;;;;;;;4.93;100.00;103178.88;5028175;28;20120;-85
2021/12/18 02:35:09;;;;;;;45.60;16.23;;;;;;;4.94;100.00;103176.13;5024143;28;20121;-85
2021/12/18 02:37:40;;;;;;;46.65;16.05;;;;;;;4.93;100.00;103168.22;5024374;28;20036;-85
2021/12/18 02:42:52;;;;;;;41.05;14.30;;;;;;;4.90;100.00;103166.56;5014524;28;20029;-83
2021/12/18 02:45:18;;;;;;;52.35;19.45;;;;;;;4.94;100.00;103169.94;5001187;28;20790;-83
2021/12/18 02:47:47;;;;;;;42.03;13.65;;;;;;;4.91;100.00;103164.75;5017554;28;20040;-83
2021/12/18 02:50:13;;;;;;;46.40;15.77;;;;;;;4.87;100.00;103161.41;5024751;28;20075;-85
2021/12/18 02:52:39;;;;;;;39.42;17.42;;;;;;;4.86;100.00;103167.66;5007118;28;20065;-85
2021/12/18 02:55:05;;;;;;;35.78;13.38;;;;;;;4.91;100.00;103164.75;5027699;28;20026;-83
2021/12/18 02:57:31;;;;;;;42.03;15.77;;;;;;;4.78;100.00;103136.06;5025632;28;20144;-84
2021/12/18 02:59:59;;;;;;;41.80;14.93;;;;;;;4.92;100.00;103166.47;5020807;28;20052;-84
2021/12/18 03:02:26;;;;;;;43.55;15.68;;;;;;;4.97;100.00;103175.09;5017463;28;20033;-83
2021/12/18 03:04:57;;;;;;;47.70;17.23;;;;;;;4.92;100.00;103167.34;5022779;28;20044;-85
2021/12/18 03:07:25;;;;;;;49.42;15.60;;;;;;;4.88;100.00;103159.59;5009289;28;20128;-83
2021/12/18 03:25:54;;;;;;;42.22;14.98;;;;;;;4.88;100.00;103163.13;5022551;28;20033;-85
2021/12/18 03:28:20;;;;;;;35.53;14.88;;;;;;;4.89;100.00;103155.97;5038220;28;20065;-85
2021/12/18 03:30:45;;;;;;;45.67;16.48;;;;;;;4.82;100.00;103153.63;5024145;28;20075;-86
2021/12/18 03:33:11;;;;;;;45.13;15.95;;;;;;;4.88;100.00;103168.44;4995017;28;20483;-85
2021/12/18 03:35:37;;;;;;;52.10;17.40;;;;;;;4.77;100.00;103155.69;5024928;28;20371;-85
2021/12/18 03:38:03;;;;;;;49.33;17.63;;;;;;;4.78;100.00;103151.19;5026663;28;20033;-84
2021/12/18 03:40:29;;;;;;;52.40;17.38;;;;;;;4.85;100.00;103171.28;5019919;28;20069;-86
2021/12/18 03:42:55;;;;;;;43.53;14.85;;;;;;;4.83;100.00;103163.34;5006685;28;20799;-86
2021/12/18 03:45:21;;;;;;;43.75;15.88;;;;;;;4.79;100.00;103152.91;4994798;28;20124;-85
2021/12/18 03:47:48;;;;;;;53.63;17.85;;;;;;;4.77;100.00;103154.81;4994215;28;20033;-84
2021/12/18 03:50:14;;;;;;;45.58;16.88;;;;;;;4.72;100.00;103147.06;5018842;28;20030;-83
2021/12/18 03:52:39;;;;;;;48.80;16.02;;;;;;;4.69;100.00;103144.53;5022713;28;20586;-84
2021/12/18 03:55:06;;;;;;;46.40;16.10;;;;;;;4.70;100.00;103151.59;4998560;28;20037;-82
2021/12/18 03:57:31;;;;;;;50.72;17.17;;;;;;;4.66;100.00;103147.38;5028569;28;20123;-85
2021/12/18 03:59:57;;;;;;;54.45;19.27;;;;;;;4.62;100.00;103140.47;5012714;28;20183;-83
2021/12/18 04:02:23;;;;;;;52.60;18.52;;;;;;;4.57;100.00;103132.69;5014356;28;20036;-83
2021/12/18 04:04:48;;;;;;;51.28;18.00;;;;;;;4.52;100.00;103126.75;5011771;28;20117;-81
2021/12/18 04:07:15;;;;;;;44.60;16.05;;;;;;;4.60;100.00;103145.00;5007969;28;20371;-85
2021/12/18 04:09:40;;;;;;;52.85;17.15;;;;;;;4.57;100.00;103138.03;5015911;28;20072;-85
2021/12/18 04:12:07;;;;;;;53.45;19.63;;;;;;;4.53;100.00;103135.63;5029049;28;20034;-84
2021/12/18 04:14:33;;;;;;;48.95;19.67;;;;;;;4.57;100.00;103138.03;5010396;28;20105;-85
2021/12/18 04:16:58;;;;;;;48.13;16.73;;;;;;;4.59;100.00;103137.97;5025667;28;20195;-84
2021/12/18 04:19:24;;;;;;;48.38;16.25;;;;;;;4.64;100.00;103133.25;4997863;28;20041;-85
2021/12/18 04:21:50;;;;;;;47.78;14.77;;;;;;;4.58;100.00;103134.44;5029033;28;20037;-86
2021/12/18 04:24:16;;;;;;;48.67;16.58;;;;;;;4.43;100.00;103137.03;4994571;28;20044;-85
2021/12/18 04:26:42;;;;;;;57.75;18.20;;;;;;;4.15;100.00;103133.06;5010782;28;20033;-83
2021/12/18 04:29:08;;;;;;;48.10;16.02;;;;;;;3.93;100.00;103144.75;5026760;28;20037;-84
2021/12/18 04:31:34;;;;;;;48.83;17.98;;;;;;;3.56;100.00;103127.03;5010853;28;20391;-86
2021/12/18 04:34:00;;;;;;;42.42;14.40;;;;;;;3.35;100.00;103136.00;5010044;28;20061;-82
2021/12/18 04:36:26;;;;;;;47.92;17.40;;;;;;;3.14;100.00;103132.53;5009955;28;20039;-84
2021/12/18 04:38:52;;;;;;;52.92;17.10;;;;;;;2.79;100.00;103116.34;5011437;28;20040;-84
2021/12/18 04:41:23;;;;;;;46.85;16.73;;;;;;;2.53;100.00;103144.91;5022741;28;20026;-84
2021/12/18 04:43:50;;;;;;;50.50;16.67;;;;;;;2.18;100.00;103138.41;5029211;28;20049;-84
2021/12/18 04:46:15;;;;;;;51.75;15.02;;;;;;;1.97;100.00;103145.44;5013485;28;20560;-86
2021/12/18 04:48:41;;;;;;;50.67;16.48;;;;;;;1.80;100.00;103131.97;4993266;28;20045;-82
2021/12/18 04:51:07;;;;;;;50.63;15.38;;;;;;;1.76;100.00;103118.84;5012538;28;20521;-83
2021/12/18 04:53:33;;;;;;;46.55;16.10;;;;;;;1.72;100.00;103134.94;5021279;28;20033;-85
2021/12/18 04:55:58;;;;;;;42.38;15.23;;;;;;;1.47;100.00;103119.13;5026519;28;20123;-85
2021/12/18 04:58:24;;;;;;;50.15;15.73;;;;;;;1.41;100.00;103137.91;5022926;28;20391;-82
2021/12/18 05:00:49;;;;;;;46.80;15.98;;;;;;;1.36;100.00;103146.03;5029761;28;20067;-85
2021/12/18 05:03:17;;;;;;;58.25;19.17;;;;;;;1.24;100.00;103146.47;5026454;28;20064;-82
2021/12/18 05:05:43;;;;;;;51.50;16.05;;;;;;;1.30;100.00;103154.22;5027545;28;20091;-83
2021/12/18 05:08:09;;;;;;;47.13;16.67;;;;;;;1.25;100.00;103130.53;5025169;28;20065;-83
2021/12/18 05:10:35;;;;;;;59.67;17.20;;;;;;;1.40;100.00;103141.47;5029163;28;20065;-84
2021/12/18 05:13:01;;;;;;;48.40;15.48;;;;;;;1.41;100.00;103132.63;5026104;28;20057;-83
2021/12/18 05:15:26;;;;;;;52.38;14.25;;;;;;;1.33;100.00;103132.03;5026767;28;20033;-84
2021/12/18 05:17:52;;;;;;;58.90;17.80;;;;;;;1.40;100.00;103141.47;5025043;28;20029;-84
2021/12/18 05:20:18;;;;;;;51.08;14.73;;;;;;;1.41;100.00;103145.88;5012423;28;20050;-82
2021/12/18 05:22:43;;;;;;;58.92;17.23;;;;;;;1.34;100.00;103123.16;5029110;28;20042;-84
2021/12/18 05:25:09;;;;;;;64.07;18.92;;;;;;;1.69;100.00;103154.50;4995383;28;20388;-83
2021/12/18 05:27:36;;;;;;;58.25;15.82;;;;;;;1.84;100.00;103147.72;5025686;28;20038;-83
2021/12/18 05:30:07;;;;;;;52.50;15.73;;;;;;;1.96;100.00;103147.25;5025182;28;20053;-85
2021/12/18 05:32:33;;;;;;;52.83;16.30;;;;;;;1.99;100.00;103146.25;4994528;28;20052;-82
2021/12/18 05:34:59;;;;;;;53.65;14.10;;;;;;;2.01;100.00;103144.38;5005389;28;20394;-84
2021/12/18 05:39:52;;;;;;;48.50;15.15;;;;;;;2.14;100.00;103160.69;5010894;28;20502;-84
2021/12/18 05:42:18;;;;;;;49.42;14.65;;;;;;;2.22;100.00;103157.72;4988922;28;20056;-83
2021/12/18 05:44:44;;;;;;;53.58;15.63;;;;;;;2.29;100.00;103157.41;5020207;28;20529;-83
2021/12/18 05:47:10;;;;;;;59.15;16.50;;;;;;;2.24;100.00;103124.00;5006232;28;20033;-85
2021/12/18 05:49:36;;;;;;;57.38;17.60;;;;;;;2.50;100.00;103155.66;5022958;28;20124;-84
2021/12/18 05:52:02;;;;;;;55.08;16.52;;;;;;;2.57;100.00;103149.16;5022971;28;20041;-84
2021/12/18 05:54:28;;;;;;;58.17;18.25;;;;;;;2.61;100.00;103147.22;5022570;28;20552;-84
2021/12/18 05:56:54;;;;;;;51.28;15.82;;;;;;;2.58;100.00;103147.38;5026592;28;20061;-83
2021/12/18 05:59:20;;;;;;;57.22;15.32;;;;;;;2.63;100.00;103151.53;5005124;28;20041;-84
2021/12/18 06:01:45;;;;;;;61.92;17.00;;;;;;;2.63;100.00;103143.56;5025465;28;20395;-83
2021/12/18 06:04:11;;;;;;;55.85;17.20;;;;;;;2.74;100.00;103151.09;4996134;28;20568;-86
2021/12/18 06:06:36;;;;;;;60.50;16.85;;;;;;;2.82;100.00;103156.94;5025864;28;20040;-83
2021/12/18 06:09:02;;;;;;;59.22;16.48;;;;;;;2.86;100.00;103147.91;5004941;28;20120;-84
2021/12/18 06:11:31;;;;;;;73.28;19.33;;;;;;;2.98;100.00;103157.13;5024873;28;20041;-84
2021/12/18 06:13:56;;;;;;;58.95;17.90;;;;;;;3.09;100.00;103153.97;5026974;28;20075;-85
2021/12/18 06:16:22;;;;;;;67.80;19.52;;;;;;;3.22;100.00;103159.63;5023006;28;20060;-81
2021/12/18 06:18:50;;;;;;;64.00;17.90;;;;;;;3.29;100.00;103158.41;5026436;28;20083;-84
2021/12/18 06:21:17;;;;;;;61.15;17.88;;;;;;;3.17;100.00;103135.03;5025323;28;20099;-83
2021/12/18 06:23:45;;;;;;;69.35;19.13;;;;;;;3.41;100.00;103156.97;5010223;28;20079;-83
2021/12/18 06:26:10;;;;;;;66.30;19.38;;;;;;;3.50;100.00;103173.41;4995270;28;20042;-82
2021/12/18 06:28:36;;;;;;;71.07;20.15;;;;;;;3.54;100.00;103174.09;5027731;28;20558;-82
2021/12/18 06:31:02;;;;;;;62.95;21.08;;;;;;;3.48;100.00;103159.28;4989920;28;20041;-84
2021/12/18 06:33:28;;;;;;;71.82;21.33;;;;;;;3.57;100.00;103167.78;5010811;28;20112;-83
2021/12/18 06:35:54;;;;;;;68.18;19.27;;;;;;;3.58;100.00;103161.53;5011262;28;20053;-86
2021/12/18 06:38:20;;;;;;;63.55;17.85;;;;;;;3.62;100.00;103158.66;5010386;28;20495;-85
2021/12/18 06:40:46;;;;;;;72.63;19.25;;;;;;;3.54;100.00;103147.50;4991295;28;20486;-84
2021/12/18 06:43:12;;;;;;;66.53;19.35;;;;;;;3.64;100.00;103155.94;5006325;28;20412;-83
2021/12/18 06:45:37;;;;;;;66.20;19.65;;;;;;;3.67;100.00;103158.44;5026229;28;20128;-82
2021/12/18 06:48:04;;;;;;;72.65;20.15;;;;;;;3.77;100.00;103164.19;5009521;28;20064;-83
2021/12/18 06:50:31;;;;;;;62.95;19.23;;;;;;;3.80;100.00;103150.75;4992001;28;20066;-83
2021/12/18 06:52:57;;;;;;;68.75;19.67;;;;;;;3.92;100.00;103147.50;5003845;28;20032;-82
2021/12/18 06:55:23;;;;;;;72.43;18.50;;;;;;;4.01;100.00;103156.84;5008726;28;20041;-84
2021/12/18 06:57:49;;;;;;;43.97;13.13;;;;;;;4.13;100.00;103156.25;5009832;28;20052;-81
2021/12/18 07:00:16;;;;;;;47.33;14.63;;;;;;;4.12;100.00;103146.53;4992815;28;20128;-83
2021/12/18 07:02:42;;;;;;;53.42;17.00;;;;;;;4.23;100.00;103153.97;5002430;28;20042;-84
2021/12/18 07:05:09;;;;;;;79.40;21.33;;;;;;;4.26;100.00;103141.41;4993634;28;20127;-82
2021/12/18 07:07:35;;;;;;;73.95;21.52;;;;;;;4.28;100.00;103139.50;4995968;28;20033;-81
2021/12/18 07:10:01;;;;;;;75.47;19.55;;;;;;;4.34;100.00;103136.56;5013631;28;20565;-82
2021/12/18 07:12:27;;;;;;;71.97;19.77;;;;;;;4.47;100.00;103138.56;5009487;28;20034;-83
2021/12/18 07:14:53;;;;;;;70.20;20.45;;;;;;;4.46;100.00;103127.06;5025996;28;20040;-84
2021/12/18 07:17:18;;;;;;;92.32;24.55;;;;;;;4.58;100.00;103138.91;5025084;28;20040;-83
2021/12/18 07:19:47;;;;;;;70.10;19.92;;;;;;;4.64;100.00;103122.59;5010298;28;20048;-82
2021/12/18 07:22:16;;;;;;;76.03;21.27;;;;;;;4.61;100.00;103114.78;5020455;28;20100;-80
2021/12/18 07:24:41;;;;;;;72.60;20.73;;;;;;;4.74;100.00;103137.19;5002773;28;20026;-83
2021/12/18 07:27:07;;;;;;;53.65;18.25;;;;;;;4.77;100.00;103139.69;5022638;28;20040;-82
2021/12/18 07:29:33;;;;;;;70.70;20.83;;;;;;;4.75;100.00;103135.38;5009948;28;20044;-86
2021/12/18 07:31:59;;;;;;;73.53;22.67;;;;;;;4.74;100.00;103129.19;5026249;28;20422;-84
2021/12/18 07:34:25;;;;;;;69.78;22.63;;;;;;;4.75;100.00;103130.91;5019929;28;20112;-83
2021/12/18 07:36:52;;;;;;;64.63;20.85;;;;;;;4.79;100.00;103134.25;5004251;28;20050;-82
2021/12/18 07:39:17;;;;;;;60.47;19.20;;;;;;;4.75;100.00;103128.22;5028018;28;20029;-83
2021/12/18 07:41:43;;;;;;;73.70;20.17;;;;;;;4.83;100.00;103139.34;4995209;28;20095;-82
2021/12/18 07:44:10;;;;;;;80.43;23.50;;;;;;;4.82;100.00;103137.63;5021360;28;20037;-84
2021/12/18 07:46:37;;;;;;;82.85;24.10;;;;;;;4.83;100.00;103143.81;5023042;28;20045;-85
2021/12/18 07:49:06;;;;;;;118.63;31.58;;;;;;;4.73;100.00;103119.44;5019319;28;20033;-86
2021/12/18 07:51:33;;;;;;;74.07;22.55;;;;;;;4.78;100.00;103127.22;5022115;28;20041;-81
2021/12/18 07:53:59;;;;;;;96.53;26.75;;;;;;;4.76;100.00;103129.97;4995678;28;20033;-83
2021/12/18 07:56:25;;;;;;;72.03;20.10;;;;;;;4.75;100.00;103138.88;5008449;28;20123;-82
2021/12/18 07:58:52;;;;;;;60.00;16.73;;;;;;;4.69;100.00;103133.88;4995340;28;20040;-83
2021/12/18 08:01:17;;;;;;;64.05;18.27;;;;;;;4.71;100.00;103134.69;5028471;28;20036;-85
2021/12/18 08:03:43;;;;;;;134.35;44.45;;;;;;;4.78;100.00;103154.72;5010004;28;20033;-86
2021/12/18 08:06:09;;;;;;;82.60;23.67;;;;;;;4.72;100.00;103139.06;5009555;28;20048;-83
2021/12/18 08:08:35;;;;;;;67.85;20.80;;;;;;;4.79;100.00;103168.91;5005564;28;20044;-83
2021/12/18 08:11:01;;;;;;;46.83;13.27;;;;;;;4.80;100.00;103155.50;5003654;28;20033;-83
2021/12/18 08:13:26;;;;;;;81.60;23.77;;;;;;;4.81;100.00;103157.22;4995311;28;20056;-82
2021/12/18 08:15:52;;;;;;;77.95;21.45;;;;;;;4.84;100.00;103165.09;4987364;28;20064;-80
2021/12/18 08:18:18;;;;;;;76.07;22.67;;;;;;;4.89;100.00;103162.16;5009941;28;20025;-86
2021/12/18 08:20:43;;;;;;;86.15;24.98;;;;;;;4.94;100.00;103156.59;4994165;28;20087;-85
2021/12/18 08:23:09;;;;;;;70.53;21.83;;;;;;;4.99;100.00;103157.22;4994630;28;20045;-82
2021/12/18 08:25:35;;;;;;;68.05;19.75;;;;;;;5.00;100.00;103156.25;4993651;28;20033;-81
2021/12/18 08:28:05;;;;;;;76.70;21.48;;;;;;;5.01;100.00;103158.88;4990334;28;20042;-84
2021/12/18 08:30:32;;;;;;;60.88;17.17;;;;;;;5.09;100.00;103162.94;5017902;28;20033;-84
2021/12/18 08:32:58;;;;;;;52.03;15.80;;;;;;;5.05;100.00;103156.88;5007460;28;20199;-85
2021/12/18 08:35:28;;;;;;;89.70;23.48;;;;;;;5.11;100.00;103158.34;5011053;28;20029;-84
2021/12/18 08:37:55;;;;;;;64.55;18.58;;;;;;;5.14;100.00;103155.56;5001507;28;20038;-82
2021/12/18 08:40:21;;;;;;;72.22;19.58;;;;;;;5.17;100.00;103152.72;4990379;28;20033;-85
2021/12/18 08:42:47;;;;;;;64.65;19.92;;;;;;;5.22;100.00;103159.53;5014736;28;20041;-85
2021/12/18 08:45:13;;;;;;;52.47;18.00;;;;;;;5.26;100.00;103155.75;4998068;28;20042;-83
2021/12/18 08:47:40;;;;;;;77.75;20.73;;;;;;;5.26;100.00;103149.53;5009425;28;20085;-86
2021/12/18 08:50:09;;;;;;;50.15;17.75;;;;;;;5.32;100.00;103133.22;5023708;28;20083;-84
2021/12/18 08:52:38;;;;;;;24.65;12.65;;;;;;;5.44;100.00;103153.03;5011272;28;20220;-85
2021/12/18 08:55:04;;;;;;;56.38;16.85;;;;;;;5.44;100.00;103155.69;5005589;28;20419;-84
2021/12/18 08:57:30;;;;;;;58.33;19.05;;;;;;;5.37;100.00;103136.50;5029335;28;20034;-84
2021/12/18 08:59:56;;;;;;;61.03;17.92;;;;;;;5.46;100.00;103156.50;4994384;28;20030;-86
2021/12/18 09:02:22;;;;;;;66.00;22.45;;;;;;;5.49;100.00;103165.19;5013231;28;20147;-85
2021/12/18 09:04:48;;;;;;;67.10;20.20;;;;;;;5.48;100.00;103155.47;5024366;28;20040;-85
2021/12/18 09:07:14;;;;;;;63.45;18.23;;;;;;;5.51;100.00;103151.75;5021197;28;20084;-86
2021/12/18 09:09:40;;;;;;;51.13;16.95;;;;;;;5.48;100.00;103160.78;4996223;28;20394;-84
2021/12/18 09:12:08;;;;;;;68.68;21.05;;;;;;;5.53;100.00;103160.56;5001831;28;20029;-83
2021/12/18 09:14:34;;;;;;;50.65;16.02;;;;;;;5.59;100.00;103162.03;5011234;28;20036;-83
2021/12/18 09:16:59;;;;;;;72.05;19.67;;;;;;;5.64;100.00;103167.97;5018156;28;20029;-84
2021/12/18 09:19:25;;;;;;;77.13;22.48;;;;;;;5.62;100.00;103156.50;4997989;28;20965;-83
2021/12/18 09:21:51;;;;;;;115.60;36.88;;;;;;;5.62;100.00;103164.50;4997439;28;20506;-83
2021/12/18 09:24:16;;;;;;;102.93;38.38;;;;;;;5.59;100.00;103168.22;5022282;28;20041;-84
2021/12/18 09:26:42;;;;;;;66.20;19.73;;;;;;;5.64;100.00;103166.16;4993516;28;20041;-84
2021/12/18 09:29:08;;;;;;;78.00;20.75;;;;;;;5.67;100.00;103173.13;5012834;28;20030;-83
2021/12/18 09:31:33;;;;;;;158.23;45.72;;;;;;;5.65;100.00;103157.19;5011255;28;20044;-84
2021/12/18 09:33:59;;;;;;;107.32;33.75;;;;;;;5.73;100.00;103168.31;4992887;28;20026;-84
2021/12/18 09:36:25;;;;;;;81.15;22.55;;;;;;;5.65;100.00;103151.84;5030142;28;20039;-86
2021/12/18 09:38:50;;;;;;;70.63;22.00;;;;;;;5.83;100.00;103171.31;5006343;28;20045;-84
2021/12/18 09:41:16;;;;;;;66.63;20.30;;;;;;;5.79;100.00;103152.88;4995886;28;20038;-82
2021/12/18 09:43:41;;;;;;;79.90;21.52;;;;;;;5.91;100.00;103173.56;5006215;28;20441;-83
2021/12/18 09:46:13;;;;;;;67.63;17.48;;;;;;;5.91;100.00;103184.25;4988930;28;20033;-84
2021/12/18 09:48:40;;;;;;;71.90;22.65;;;;;;;5.93;100.00;103188.59;5023689;28;20036;-84
2021/12/18 09:51:11;;;;;;;82.25;21.80;;;;;;;5.93;100.00;103177.03;5005730;28;20076;-82
2021/12/18 09:53:37;;;;;;;62.75;18.23;;;;;;;5.91;100.00;103182.44;5008045;28;20171;-85
2021/12/18 09:56:05;;;;;;;63.83;20.05;;;;;;;5.96;100.00;103192.91;5003235;28;20120;-83
2021/12/18 09:58:31;;;;;;;63.03;18.42;;;;;;;6.00;100.00;103189.09;4991520;28;20037;-83
2021/12/18 10:00:56;;;;;;;68.38;20.83;;;;;;;5.98;100.00;103201.69;5030535;28;20044;-83
2021/12/18 10:03:44;;;;;;;55.13;17.25;;;;;;;5.75;100.00;103151.34;5024287;28;20040;-84
2021/12/18 10:06:36;;;;;;;71.85;22.80;;;;;;;6.04;100.00;103196.00;5040895;28;20382;-84
2021/12/18 10:09:26;;;;;;;71.60;19.75;;;;;;;6.05;100.00;103194.19;5006323;28;20128;-85
2021/12/18 10:12:01;;;;;;;58.20;13.95;;;;;;;6.13;100.00;103205.28;5008925;28;20193;-86
2021/12/18 10:14:42;;;;;;;45.45;16.92;;;;;;;6.11;100.00;103199.16;4997636;28;20041;-86
2021/12/18 10:17:28;;;;;;;62.30;18.10;;;;;;;6.00;100.00;103175.75;5012717;28;20037;-85
2021/12/18 10:20:16;;;;;;;53.17;18.73;;;;;;;6.13;100.00;103181.25;5026224;28;20091;-84
2021/12/18 10:22:50;;;;;;;35.85;14.45;;;;;;;6.23;100.00;103194.97;5026867;28;20057;-84
2021/12/18 10:25:24;;;;;;;77.15;23.27;;;;;;;6.20;100.00;103196.00;5011614;28;20036;-84
2021/12/18 10:28:02;;;;;;;76.35;20.88;;;;;;;6.19;100.00;103199.59;5028202;28;20556;-85
2021/12/18 10:30:28;;;;;;;69.43;17.80;;;;;;;6.19;100.00;103186.25;5025686;28;20103;-83
2021/12/18 10:33:08;;;;;;;75.07;20.50;;;;;;;6.34;100.00;103195.19;5026684;28;20041;-82
2021/12/18 10:35:37;;;;;;;80.93;21.38;;;;;;;6.38;100.00;103200.28;5002437;28;20082;-83
2021/12/18 10:38:05;;;;;;;75.07;21.60;;;;;;;6.41;100.00;103193.06;5025072;28;20033;-84
2021/12/18 10:40:47;;;;;;;75.70;20.92;;;;;;;6.40;100.00;103186.81;4995180;28;20034;-81
2021/12/18 10:43:14;;;;;;;64.75;21.20;;;;;;;6.41;100.00;103174.34;5013297;28;20040;-82
2021/12/18 10:45:39;;;;;;;78.25;24.80;;;;;;;6.62;100.00;103201.63;4996603;28;20119;-82
2021/12/18 10:48:08;;;;;;;64.75;19.20;;;;;;;6.66;100.00;103189.78;5014871;28;20445;-81
2021/12/18 10:50:53;;;;;;;66.35;18.55;;;;;;;6.76;100.00;103190.97;4997515;28;20057;-82
2021/12/18 10:53:22;;;;;;;61.67;18.58;;;;;;;6.78;100.00;103181.03;5010933;28;20045;-83
2021/12/18 10:55:59;;;;;;;46.50;15.70;;;;;;;6.90;100.00;103190.13;5000148;28;20041;-82
2021/12/18 10:58:36;;;;;;;70.18;19.20;;;;;;;6.94;100.00;103179.16;5010113;28;20096;-82
2021/12/18 11:01:05;;;;;;;39.45;13.75;;;;;;;7.10;100.00;103203.19;5013690;28;20040;-81
2021/12/18 11:03:46;;;;;;;51.88;19.00;;;;;;;7.09;100.00;103200.59;5013242;28;20029;-82
2021/12/18 11:06:24;;;;;;;62.58;18.83;;;;;;;7.08;100.00;103210.44;5012489;28;20037;-82
2021/12/18 11:09:04;;;;;;;50.83;16.65;;;;;;;7.13;100.00;103204.81;5008963;28;20041;-82
2021/12/18 11:14:04;;;;;;;44.05;14.52;;;;;;;7.19;100.00;103183.00;5005923;28;20128;-82
2021/12/18 11:16:30;;;;;;;60.15;20.05;;;;;;;7.15;100.00;103168.97;5013595;28;20042;-82
2021/12/18 11:18:56;;;;;;;57.13;17.55;;;;;;;7.29;100.00;103192.19;5030018;28;20040;-82
2021/12/18 11:21:25;;;;;;;54.80;16.70;;;;;;;7.32;100.00;103180.44;5028513;28;20033;-83
2021/12/18 11:23:54;;;;;;;69.13;18.48;;;;;;;7.39;100.00;103184.47;4997083;28;20029;-82
2021/12/18 11:26:22;;;;;;;77.05;19.77;;;;;;;7.42;100.00;103189.63;5012951;28;20037;-82
2021/12/18 11:28:52;;;;;;;181.63;37.42;;;;;;;7.38;100.00;103180.94;5012186;28;20033;-81
2021/12/18 11:31:18;;;;;;;89.72;23.52;;;;;;;7.35;100.00;103170.41;4996302;28;20113;-81
2021/12/18 11:33:47;;;;;;;69.25;19.70;;;;;;;7.45;100.00;103168.88;5024043;28;20040;-80
2021/12/18 11:36:12;;;;;;;69.72;25.90;;;;;;;7.64;100.00;103176.59;5009994;28;20033;-80
2021/12/18 11:38:40;;;;;;;56.97;24.67;;;;;;;7.74;100.00;103166.16;5023988;28;20037;-80
2021/12/18 11:41:07;;;;;;;48.40;16.45;;;;;;;7.78;99.64;103165.03;4985212;28;20042;-81
2021/12/18 11:43:36;;;;;;;43.95;15.43;;;;;;;7.88;99.69;103166.13;5017545;28;20036;-80
2021/12/18 11:46:41;;;;;;;45.50;17.60;;;;;;;7.99;99.25;103156.53;4987273;28;20022;-81
2021/12/18 11:49:09;;;;;;;45.38;13.90;;;;;;;8.04;98.86;103165.13;4967952;28;20145;-82
2021/12/18 11:51:36;;;;;;;54.83;16.80;;;;;;;8.00;99.13;103167.16;4955223;28;20069;-80
2021/12/18 11:54:06;;;;;;;53.22;15.38;;;;;;;8.03;99.37;103166.13;5003304;28;20453;-80
2021/12/18 11:56:48;;;;;;;49.35;15.95;;;;;;;8.11;99.60;103148.56;5025574;28;20037;-81
2021/12/18 11:59:38;;;;;;;59.70;14.82;;;;;;;8.23;97.68;103148.69;5006217;28;20562;-81
2021/12/18 12:02:04;;;;;;;62.13;16.00;;;;;;;8.27;97.23;103134.16;5000164;28;20049;-81